Terminal Aerodrome Forecast
Issued by NWS Shreveport, LA

Home | Current Version | Previous Version | Text Only | Print | Product List | Glossary On
Versions: 1 2 3 4 5 6 7 8 9 10 11 12 13 14 15 16 17 18 19
875
FTUS44 KSHV 291153
TAFLFK
TAF
KLFK 291153Z 2912/3012 17006KT P6SM VCTS FEW025 OVC060CB
      TEMPO 2912/2916 VRB15G25KT 3SM TSRA BR BKN025 OVC060CB
     FM291600 16013G22KT P6SM VCTS OVC035CB
      TEMPO 2916/2920 3SM -TSRA BR OVC035CB
     FM292000 16014G24KT P6SM VCTS OVC030CB
     FM300000 17012KT P6SM VCTS OVC040CB
     FM300400 19006KT P6SM SCT050 BKN250
     FM300800 27006KT P6SM BKN250=

USA.gov is the U.S. government's official web portal to all federal, state and local government web resources and services.